sensor_id;sensor_type;location;lat;lon;timestamp;temperature;humidity
8226;DHT22;4154;48.810;9.012;2023-05-02T00:02:12;10.50;99.90
8226;DHT22;4154;48.810;9.012;2023-05-02T00:07:04;10.30;99.90
8226;DHT22;4154;48.810;9.012;2023-05-02T00:09:30;10.30;99.90
8226;DHT22;4154;48.810;9.012;2023-05-02T00:11:55;10.40;99.90
8226;DHT22;4154;48.810;9.012;2023-05-02T00:14:21;10.30;99.90
8226;DHT22;4154;48.810;9.012;2023-05-02T00:16:47;10.20;99.90
8226;DHT22;4154;48.810;9.012;2023-05-02T00:19:12;10.30;99.90
8226;DHT22;4154;48.810;9.012;2023-05-02T00:21:38;10.30;99.90
8226;DHT22;4154;48.810;9.012;2023-05-02T00:24:04;10.00;99.90
8226;DHT22;4154;48.810;9.012;2023-05-02T00:26:30;10.40;99.90
8226;DHT22;4154;48.810;9.012;2023-05-02T00:28:56;10.20;99.90
8226;DHT22;4154;48.810;9.012;2023-05-02T00:33:49;10.20;99.90
8226;DHT22;4154;48.810;9.012;2023-05-02T00:36:16;10.10;99.90
8226;DHT22;4154;48.810;9.012;2023-05-02T00:41:09;9.90;99.90
8226;DHT22;4154;48.810;9.012;2023-05-02T00:43:35;10.10;99.90
8226;DHT22;4154;48.810;9.012;2023-05-02T00:48:28;10.10;99.90
8226;DHT22;4154;48.810;9.012;2023-05-02T00:50:54;10.00;99.90
8226;DHT22;4154;48.810;9.012;2023-05-02T00:53:21;10.00;99.90
8226;DHT22;4154;48.810;9.012;2023-05-02T00:55:47;9.90;99.90
8226;DHT22;4154;48.810;9.012;2023-05-02T00:58:15;9.90;99.90
8226;DHT22;4154;48.810;9.012;2023-05-02T01:10:07;9.80;99.90
8226;DHT22;4154;48.810;9.012;2023-05-02T01:17:51;9.70;99.90
8226;DHT22;4154;48.810;9.012;2023-05-02T01:20:24;9.20;99.90
8226;DHT22;4154;48.810;9.012;2023-05-02T01:22:55;9.60;99.90
8226;DHT22;4154;48.810;9.012;2023-05-02T01:25:30;9.60;99.90
8226;DHT22;4154;48.810;9.012;2023-05-02T01:28:45;9.30;99.90
8226;DHT22;4154;48.810;9.012;2023-05-02T01:31:32;9.60;99.90
8226;DHT22;4154;48.810;9.012;2023-05-02T01:34:01;9.60;99.90
8226;DHT22;4154;48.810;9.012;2023-05-02T01:36:30;9.50;99.90
8226;DHT22;4154;48.810;9.012;2023-05-02T01:39:00;9.60;99.90
8226;DHT22;4154;48.810;9.012;2023-05-02T01:41:30;9.50;99.90
8226;DHT22;4154;48.810;9.012;2023-05-02T01:43:58;9.50;99.90
8226;DHT22;4154;48.810;9.012;2023-05-02T01:46:28;9.40;99.90
8226;DHT22;4154;48.810;9.012;2023-05-02T01:48:57;9.40;99.90
8226;DHT22;4154;48.810;9.012;2023-05-02T01:51:31;9.50;99.90
8226;DHT22;4154;48.810;9.012;2023-05-02T01:54:00;9.50;99.90
8226;DHT22;4154;48.810;9.012;2023-05-02T01:56:37;9.50;99.90
8226;DHT22;4154;48.810;9.012;2023-05-02T01:59:09;9.50;99.90
8226;DHT22;4154;48.810;9.012;2023-05-02T02:01:39;9.50;99.90
8226;DHT22;4154;48.810;9.012;2023-05-02T02:04:08;9.50;99.90
8226;DHT22;4154;48.810;9.012;2023-05-02T02:06:35;9.50;99.90
8226;DHT22;4154;48.810;9.012;2023-05-02T02:11:43;9.50;99.90
8226;DHT22;4154;48.810;9.012;2023-05-02T02:14:17;9.50;99.90
8226;DHT22;4154;48.810;9.012;2023-05-02T02:16:45;9.50;99.90
8226;DHT22;4154;48.810;9.012;2023-05-02T02:19:13;9.50;99.90
8226;DHT22;4154;48.810;9.012;2023-05-02T02:21:42;9.50;99.90
8226;DHT22;4154;48.810;9.012;2023-05-02T02:24:12;9.30;99.90
8226;DHT22;4154;48.810;9.012;2023-05-02T02:26:39;9.60;99.90
8226;DHT22;4154;48.810;9.012;2023-05-02T02:29:05;9.40;99.90
8226;DHT22;4154;48.810;9.012;2023-05-02T02:31:32;9.40;99.90
8226;DHT22;4154;48.810;9.012;2023-05-02T02:41:44;9.40;99.90
8226;DHT22;4154;48.810;9.012;2023-05-02T02:44:26;9.10;99.90
8226;DHT22;4154;48.810;9.012;2023-05-02T02:47:08;9.40;99.90
8226;DHT22;4154;48.810;9.012;2023-05-02T02:53:25;9.50;99.90
8226;DHT22;4154;48.810;9.012;2023-05-02T02:56:05;9.40;99.90
8226;DHT22;4154;48.810;9.012;2023-05-02T02:58:45;9.50;99.90
8226;DHT22;4154;48.810;9.012;2023-05-02T03:01:19;9.40;99.90
8226;DHT22;4154;48.810;9.012;2023-05-02T03:03:47;9.50;99.90
8226;DHT22;4154;48.810;9.012;2023-05-02T03:06:16;9.60;99.90
8226;DHT22;4154;48.810;9.012;2023-05-02T03:11:09;9.50;99.90
8226;DHT22;4154;48.810;9.012;2023-05-02T03:13:36;9.50;99.90
8226;DHT22;4154;48.810;9.012;2023-05-02T03:16:36;9.30;99.90
8226;DHT22;4154;48.810;9.012;2023-05-02T03:21:31;9.60;99.90
8226;DHT22;4154;48.810;9.012;2023-05-02T03:23:58;9.50;99.90
8226;DHT22;4154;48.810;9.012;2023-05-02T03:26:25;9.80;99.90
8226;DHT22;4154;48.810;9.012;2023-05-02T03:31:17;9.50;99.90
8226;DHT22;4154;48.810;9.012;2023-05-02T03:33:43;9.50;99.90
8226;DHT22;4154;48.810;9.012;2023-05-02T03:36:09;9.60;99.90
8226;DHT22;4154;48.810;9.012;2023-05-02T03:38:35;9.70;99.90
8226;DHT22;4154;48.810;9.012;2023-05-02T03:41:01;9.60;99.90
8226;DHT22;4154;48.810;9.012;2023-05-02T03:43:28;9.60;99.90
8226;DHT22;4154;48.810;9.012;2023-05-02T03:48:20;9.60;99.90
8226;DHT22;4154;48.810;9.012;2023-05-02T03:53:14;9.60;99.90
8226;DHT22;4154;48.810;9.012;2023-05-02T03:55:41;9.60;99.90
8226;DHT22;4154;48.810;9.012;2023-05-02T03:58:09;9.60;99.90
8226;DHT22;4154;48.810;9.012;2023-05-02T04:00:35;9.70;99.90
8226;DHT22;4154;48.810;9.012;2023-05-02T04:05:27;9.70;99.90
8226;DHT22;4154;48.810;9.012;2023-05-02T04:07:53;9.80;99.90
8226;DHT22;4154;48.810;9.012;2023-05-02T04:10:22;9.80;99.90
8226;DHT22;4154;48.810;9.012;2023-05-02T04:12:48;9.90;99.90
8226;DHT22;4154;48.810;9.012;2023-05-02T04:15:14;10.00;99.90
8226;DHT22;4154;48.810;9.012;2023-05-02T04:20:06;10.00;99.90
8226;DHT22;4154;48.810;9.012;2023-05-02T04:22:32;10.00;99.90
8226;DHT22;4154;48.810;9.012;2023-05-02T04:27:24;10.00;99.90
8226;DHT22;4154;48.810;9.012;2023-05-02T04:29:51;10.10;99.90
8226;DHT22;4154;48.810;9.012;2023-05-02T04:34:44;10.10;99.90
8226;DHT22;4154;48.810;9.012;2023-05-02T04:37:10;10.30;99.90
8226;DHT22;4154;48.810;9.012;2023-05-02T04:39:35;10.10;99.90
8226;DHT22;4154;48.810;9.012;2023-05-02T04:42:01;10.10;99.90
8226;DHT22;4154;48.810;9.012;2023-05-02T04:44:27;10.20;99.90
8226;DHT22;4154;48.810;9.012;2023-05-02T04:46:53;10.00;99.90
8226;DHT22;4154;48.810;9.012;2023-05-02T04:49:19;10.20;99.90
8226;DHT22;4154;48.810;9.012;2023-05-02T04:54:11;10.30;99.90
8226;DHT22;4154;48.810;9.012;2023-05-02T04:59:03;10.30;99.90
8226;DHT22;4154;48.810;9.012;2023-05-02T05:01:29;10.30;99.90
8226;DHT22;4154;48.810;9.012;2023-05-02T05:06:21;10.30;99.90
8226;DHT22;4154;48.810;9.012;2023-05-02T05:08:49;10.40;99.90
8226;DHT22;4154;48.810;9.012;2023-05-02T05:11:14;10.40;99.90
8226;DHT22;4154;48.810;9.012;2023-05-02T05:13:40;10.40;99.90
8226;DHT22;4154;48.810;9.012;2023-05-02T05:16:07;10.30;99.90
8226;DHT22;4154;48.810;9.012;2023-05-02T05:21:05;10.30;99.90
8226;DHT22;4154;48.810;9.012;2023-05-02T05:23:33;10.40;99.90
8226;DHT22;4154;48.810;9.012;2023-05-02T05:26:09;10.30;99.90
8226;DHT22;4154;48.810;9.012;2023-05-02T05:31:09;10.50;99.90
8226;DHT22;4154;48.810;9.012;2023-05-02T05:33:37;10.70;99.90
8226;DHT22;4154;48.810;9.012;2023-05-02T05:36:11;10.80;99.90
8226;DHT22;4154;48.810;9.012;2023-05-02T05:41:05;10.70;99.90
8226;DHT22;4154;48.810;9.012;2023-05-02T05:43:32;10.70;99.90
8226;DHT22;4154;48.810;9.012;2023-05-02T05:45:58;11.00;99.90
8226;DHT22;4154;48.810;9.012;2023-05-02T05:48:23;10.70;99.90
8226;DHT22;4154;48.810;9.012;2023-05-02T05:50:49;10.80;99.90
8226;DHT22;4154;48.810;9.012;2023-05-02T05:53:17;10.80;99.90
8226;DHT22;4154;48.810;9.012;2023-05-02T05:55:44;10.90;99.90
8226;DHT22;4154;48.810;9.012;2023-05-02T05:58:10;10.90;99.90
8226;DHT22;4154;48.810;9.012;2023-05-02T06:00:37;11.00;99.90
8226;DHT22;4154;48.810;9.012;2023-05-02T06:03:04;11.00;99.90
8226;DHT22;4154;48.810;9.012;2023-05-02T06:05:31;11.10;99.90
8226;DHT22;4154;48.810;9.012;2023-05-02T06:07:58;11.60;99.90
8226;DHT22;4154;48.810;9.012;2023-05-02T06:10:24;11.10;99.90
8226;DHT22;4154;48.810;9.012;2023-05-02T06:12:50;11.10;99.90
8226;DHT22;4154;48.810;9.012;2023-05-02T06:15:15;11.00;99.90
8226;DHT22;4154;48.810;9.012;2023-05-02T06:17:42;11.10;99.90
8226;DHT22;4154;48.810;9.012;2023-05-02T06:20:08;10.90;99.90
8226;DHT22;4154;48.810;9.012;2023-05-02T06:22:34;11.20;99.90
8226;DHT22;4154;48.810;9.012;2023-05-02T06:27:29;11.30;99.90
8226;DHT22;4154;48.810;9.012;2023-05-02T06:29:55;11.30;99.90
8226;DHT22;4154;48.810;9.012;2023-05-02T06:32:20;11.40;99.90
8226;DHT22;4154;48.810;9.012;2023-05-02T06:37:12;11.40;99.90
8226;DHT22;4154;48.810;9.012;2023-05-02T06:39:38;11.40;99.90
8226;DHT22;4154;48.810;9.012;2023-05-02T06:42:03;11.40;99.90
8226;DHT22;4154;48.810;9.012;2023-05-02T06:46:55;11.40;99.90
8226;DHT22;4154;48.810;9.012;2023-05-02T06:49:21;11.50;99.90
8226;DHT22;4154;48.810;9.012;2023-05-02T06:51:47;11.60;99.90
8226;DHT22;4154;48.810;9.012;2023-05-02T06:54:13;11.50;99.90
8226;DHT22;4154;48.810;9.012;2023-05-02T06:56:41;11.60;99.90
8226;DHT22;4154;48.810;9.012;2023-05-02T06:59:07;11.50;99.90
8226;DHT22;4154;48.810;9.012;2023-05-02T07:01:33;11.50;99.90
8226;DHT22;4154;48.810;9.012;2023-05-02T07:04:00;11.70;99.90
8226;DHT22;4154;48.810;9.012;2023-05-02T07:08:55;11.20;99.90
8226;DHT22;4154;48.810;9.012;2023-05-02T07:11:20;11.60;99.90
8226;DHT22;4154;48.810;9.012;2023-05-02T07:13:47;11.50;99.90
8226;DHT22;4154;48.810;9.012;2023-05-02T07:16:13;11.40;99.90
8226;DHT22;4154;48.810;9.012;2023-05-02T07:18:39;11.70;99.90
8226;DHT22;4154;48.810;9.012;2023-05-02T07:23:31;11.70;99.90
8226;DHT22;4154;48.810;9.012;2023-05-02T07:25:56;11.80;99.90
8226;DHT22;4154;48.810;9.012;2023-05-02T07:28:22;11.70;99.90
8226;DHT22;4154;48.810;9.012;2023-05-02T07:30:47;11.60;99.90
8226;DHT22;4154;48.810;9.012;2023-05-02T07:33:14;11.70;99.90
8226;DHT22;4154;48.810;9.012;2023-05-02T07:38:05;11.80;99.90
8226;DHT22;4154;48.810;9.012;2023-05-02T07:40:31;11.80;99.90
8226;DHT22;4154;48.810;9.012;2023-05-02T07:42:57;11.90;99.90
8226;DHT22;4154;48.810;9.012;2023-05-02T07:45:25;11.90;99.90
8226;DHT22;4154;48.810;9.012;2023-05-02T07:47:51;11.90;99.90
8226;DHT22;4154;48.810;9.012;2023-05-02T07:50:16;11.90;99.90
8226;DHT22;4154;48.810;9.012;2023-05-02T07:52:42;11.80;99.90
8226;DHT22;4154;48.810;9.012;2023-05-02T07:55:08;11.90;99.90
8226;DHT22;4154;48.810;9.012;2023-05-02T08:00:00;12.00;99.90
8226;DHT22;4154;48.810;9.012;2023-05-02T08:02:25;12.10;99.90
8226;DHT22;4154;48.810;9.012;2023-05-02T08:04:53;11.90;99.90
8226;DHT22;4154;48.810;9.012;2023-05-02T08:07:19;12.20;99.90
8226;DHT22;4154;48.810;9.012;2023-05-02T08:09:45;12.30;99.90
8226;DHT22;4154;48.810;9.012;2023-05-02T08:12:11;12.20;99.90
8226;DHT22;4154;48.810;9.012;2023-05-02T08:14:37;12.30;99.90
8226;DHT22;4154;48.810;9.012;2023-05-02T08:17:02;12.30;99.90
8226;DHT22;4154;48.810;9.012;2023-05-02T08:19:28;12.30;99.90
8226;DHT22;4154;48.810;9.012;2023-05-02T08:21:54;12.40;99.90
8226;DHT22;4154;48.810;9.012;2023-05-02T08:24:19;12.40;99.90
8226;DHT22;4154;48.810;9.012;2023-05-02T08:26:45;12.60;99.90
8226;DHT22;4154;48.810;9.012;2023-05-02T08:29:11;12.60;99.90
8226;DHT22;4154;48.810;9.012;2023-05-02T08:31:38;12.60;99.90
8226;DHT22;4154;48.810;9.012;2023-05-02T08:34:05;12.70;99.90
8226;DHT22;4154;48.810;9.012;2023-05-02T08:36:30;12.70;99.90
8226;DHT22;4154;48.810;9.012;2023-05-02T08:41:23;12.80;99.90
8226;DHT22;4154;48.810;9.012;2023-05-02T08:43:49;12.90;99.90
8226;DHT22;4154;48.810;9.012;2023-05-02T08:46:16;12.90;99.90
8226;DHT22;4154;48.810;9.012;2023-05-02T08:48:43;13.00;99.90
8226;DHT22;4154;48.810;9.012;2023-05-02T08:51:12;13.30;99.90
8226;DHT22;4154;48.810;9.012;2023-05-02T08:53:40;13.10;99.90
8226;DHT22;4154;48.810;9.012;2023-05-02T08:56:07;13.30;99.90
8226;DHT22;4154;48.810;9.012;2023-05-02T08:58:34;13.20;99.90
8226;DHT22;4154;48.810;9.012;2023-05-02T09:01:08;13.40;99.90
8226;DHT22;4154;48.810;9.012;2023-05-02T09:03:37;13.30;99.90
8226;DHT22;4154;48.810;9.012;2023-05-02T09:06:08;13.50;99.90
8226;DHT22;4154;48.810;9.012;2023-05-02T09:08:37;13.40;99.90
8226;DHT22;4154;48.810;9.012;2023-05-02T09:11:05;13.20;99.90
8226;DHT22;4154;48.810;9.012;2023-05-02T09:13:43;13.40;99.90
8226;DHT22;4154;48.810;9.012;2023-05-02T09:16:13;13.50;99.90
8226;DHT22;4154;48.810;9.012;2023-05-02T09:18:48;13.90;99.90
8226;DHT22;4154;48.810;9.012;2023-05-02T09:21:21;13.60;99.90
8226;DHT22;4154;48.810;9.012;2023-05-02T09:23:49;13.60;99.90
8226;DHT22;4154;48.810;9.012;2023-05-02T09:26:29;13.70;99.80
8226;DHT22;4154;48.810;9.012;2023-05-02T09:28:57;13.70;99.70
8226;DHT22;4154;48.810;9.012;2023-05-02T09:31:27;13.60;99.60
8226;DHT22;4154;48.810;9.012;2023-05-02T09:34:16;13.70;99.90
8226;DHT22;4154;48.810;9.012;2023-05-02T09:36:44;13.70;99.20
8226;DHT22;4154;48.810;9.012;2023-05-02T09:39:13;13.80;99.10
8226;DHT22;4154;48.810;9.012;2023-05-02T09:41:40;13.80;98.70
8226;DHT22;4154;48.810;9.012;2023-05-02T09:44:09;13.80;98.60
8226;DHT22;4154;48.810;9.012;2023-05-02T09:46:47;13.80;98.80
8226;DHT22;4154;48.810;9.012;2023-05-02T09:49:14;13.80;98.90
8226;DHT22;4154;48.810;9.012;2023-05-02T09:51:43;13.80;99.00
8226;DHT22;4154;48.810;9.012;2023-05-02T09:54:56;13.80;98.70
8226;DHT22;4154;48.810;9.012;2023-05-02T09:57:04;13.80;98.60
8226;DHT22;4154;48.810;9.012;2023-05-02T09:59:31;13.80;99.00
8226;DHT22;4154;48.810;9.012;2023-05-02T10:02:00;13.90;98.70
8226;DHT22;4154;48.810;9.012;2023-05-02T10:04:29;13.90;98.50
8226;DHT22;4154;48.810;9.012;2023-05-02T10:06:57;14.10;98.40
8226;DHT22;4154;48.810;9.012;2023-05-02T10:09:25;14.20;98.40
8226;DHT22;4154;48.810;9.012;2023-05-02T10:11:55;14.30;98.10
8226;DHT22;4154;48.810;9.012;2023-05-02T10:14:22;14.40;97.80
8226;DHT22;4154;48.810;9.012;2023-05-02T10:17:12;14.40;97.80
8226;DHT22;4154;48.810;9.012;2023-05-02T10:20:03;14.50;97.90
8226;DHT22;4154;48.810;9.012;2023-05-02T10:22:33;14.50;97.40
8226;DHT22;4154;48.810;9.012;2023-05-02T10:25:01;14.50;97.30
8226;DHT22;4154;48.810;9.012;2023-05-02T10:27:31;15.10;99.90
8226;DHT22;4154;48.810;9.012;2023-05-02T10:29:58;14.80;98.40
8226;DHT22;4154;48.810;9.012;2023-05-02T10:32:28;15.00;98.10
8226;DHT22;4154;48.810;9.012;2023-05-02T10:35:02;15.10;97.70
8226;DHT22;4154;48.810;9.012;2023-05-02T10:37:29;15.20;95.60
8226;DHT22;4154;48.810;9.012;2023-05-02T10:39:58;15.30;94.50
8226;DHT22;4154;48.810;9.012;2023-05-02T10:42:25;15.30;95.30
8226;DHT22;4154;48.810;9.012;2023-05-02T10:44:52;15.30;95.90
8226;DHT22;4154;48.810;9.012;2023-05-02T10:47:20;15.30;96.00
8226;DHT22;4154;48.810;9.012;2023-05-02T10:50:02;15.30;96.10
8226;DHT22;4154;48.810;9.012;2023-05-02T10:52:36;15.30;95.50
8226;DHT22;4154;48.810;9.012;2023-05-02T10:55:16;15.30;95.40
8226;DHT22;4154;48.810;9.012;2023-05-02T11:00:33;15.20;99.90
8226;DHT22;4154;48.810;9.012;2023-05-02T11:02:59;15.20;95.60
8226;DHT22;4154;48.810;9.012;2023-05-02T11:05:26;15.30;95.30
8226;DHT22;4154;48.810;9.012;2023-05-02T11:08:32;15.30;94.90
8226;DHT22;4154;48.810;9.012;2023-05-02T11:10:59;15.30;95.20
8226;DHT22;4154;48.810;9.012;2023-05-02T11:14:01;15.70;95.70
8226;DHT22;4154;48.810;9.012;2023-05-02T11:16:37;15.30;95.50
8226;DHT22;4154;48.810;9.012;2023-05-02T11:19:21;15.20;95.60
8226;DHT22;4154;48.810;9.012;2023-05-02T11:21:47;17.60;96.70
8226;DHT22;4154;48.810;9.012;2023-05-02T11:24:42;15.40;96.00
8226;DHT22;4154;48.810;9.012;2023-05-02T11:29:57;15.80;96.00
8226;DHT22;4154;48.810;9.012;2023-05-02T11:37:53;16.20;94.20
8226;DHT22;4154;48.810;9.012;2023-05-02T11:40:22;16.10;94.60
8226;DHT22;4154;48.810;9.012;2023-05-02T11:42:48;15.90;95.20
8226;DHT22;4154;48.810;9.012;2023-05-02T11:47:41;15.70;94.70
8226;DHT22;4154;48.810;9.012;2023-05-02T11:50:07;15.70;94.80
8226;DHT22;4154;48.810;9.012;2023-05-02T11:52:47;15.90;92.90
8226;DHT22;4154;48.810;9.012;2023-05-02T11:55:14;16.10;92.50
8226;DHT22;4154;48.810;9.012;2023-05-02T11:57:40;16.10;98.70
8226;DHT22;4154;48.810;9.012;2023-05-02T12:00:07;16.30;93.40
8226;DHT22;4154;48.810;9.012;2023-05-02T12:02:36;16.30;99.90
8226;DHT22;4154;48.810;9.012;2023-05-02T12:05:06;16.30;93.70
8226;DHT22;4154;48.810;9.012;2023-05-02T12:07:39;16.30;93.00
8226;DHT22;4154;48.810;9.012;2023-05-02T12:10:10;16.40;93.20
8226;DHT22;4154;48.810;9.012;2023-05-02T12:12:37;16.40;93.10
8226;DHT22;4154;48.810;9.012;2023-05-02T12:15:05;16.30;93.20
8226;DHT22;4154;48.810;9.012;2023-05-02T12:17:36;16.30;93.70
8226;DHT22;4154;48.810;9.012;2023-05-02T12:20:04;16.40;93.40
8226;DHT22;4154;48.810;9.012;2023-05-02T12:24:58;16.60;93.00
8226;DHT22;4154;48.810;9.012;2023-05-02T12:27:24;16.60;93.40
8226;DHT22;4154;48.810;9.012;2023-05-02T12:29:50;16.50;92.70
8226;DHT22;4154;48.810;9.012;2023-05-02T12:32:27;16.40;93.40
8226;DHT22;4154;48.810;9.012;2023-05-02T12:34:54;16.60;93.30
8226;DHT22;4154;48.810;9.012;2023-05-02T12:37:25;16.70;92.70
8226;DHT22;4154;48.810;9.012;2023-05-02T12:39:55;17.00;91.70
8226;DHT22;4154;48.810;9.012;2023-05-02T12:42:23;16.90;91.90
8226;DHT22;4154;48.810;9.012;2023-05-02T12:44:51;17.10;91.40
8226;DHT22;4154;48.810;9.012;2023-05-02T12:47:18;17.10;91.60
8226;DHT22;4154;48.810;9.012;2023-05-02T12:49:48;17.20;91.30
8226;DHT22;4154;48.810;9.012;2023-05-02T12:52:18;17.10;92.20
8226;DHT22;4154;48.810;9.012;2023-05-02T12:54:45;17.00;90.90
8226;DHT22;4154;48.810;9.012;2023-05-02T12:57:24;16.80;91.00
8226;DHT22;4154;48.810;9.012;2023-05-02T12:59:52;16.80;92.20
8226;DHT22;4154;48.810;9.012;2023-05-02T13:02:21;16.80;92.40
8226;DHT22;4154;48.810;9.012;2023-05-02T13:09:39;17.00;90.90
8226;DHT22;4154;48.810;9.012;2023-05-02T13:12:04;17.10;91.20
8226;DHT22;4154;48.810;9.012;2023-05-02T13:14:30;17.00;91.00
8226;DHT22;4154;48.810;9.012;2023-05-02T13:16:56;17.00;91.20
8226;DHT22;4154;48.810;9.012;2023-05-02T13:26:41;17.40;91.50
8226;DHT22;4154;48.810;9.012;2023-05-02T13:29:08;17.50;90.80
8226;DHT22;4154;48.810;9.012;2023-05-02T13:34:03;17.30;91.40
8226;DHT22;4154;48.810;9.012;2023-05-02T13:36:30;17.30;91.60
8226;DHT22;4154;48.810;9.012;2023-05-02T13:38:56;17.20;92.20
8226;DHT22;4154;48.810;9.012;2023-05-02T13:46:15;17.30;91.30
8226;DHT22;4154;48.810;9.012;2023-05-02T13:48:40;17.20;91.20
8226;DHT22;4154;48.810;9.012;2023-05-02T13:56:00;17.50;97.10
8226;DHT22;4154;48.810;9.012;2023-05-02T13:58:26;17.50;90.90
8226;DHT22;4154;48.810;9.012;2023-05-02T14:00:51;17.70;90.90
8226;DHT22;4154;48.810;9.012;2023-05-02T14:05:43;17.40;90.30
8226;DHT22;4154;48.810;9.012;2023-05-02T14:08:10;17.40;90.70
8226;DHT22;4154;48.810;9.012;2023-05-02T14:13:05;17.10;90.00
8226;DHT22;4154;48.810;9.012;2023-05-02T14:17:57;17.30;90.30
8226;DHT22;4154;48.810;9.012;2023-05-02T14:20:23;17.50;90.60
8226;DHT22;4154;48.810;9.012;2023-05-02T14:22:48;17.70;90.20
8226;DHT22;4154;48.810;9.012;2023-05-02T14:25:14;17.80;89.10
8226;DHT22;4154;48.810;9.012;2023-05-02T14:27:40;18.00;89.10
8226;DHT22;4154;48.810;9.012;2023-05-02T14:30:07;18.20;89.70
8226;DHT22;4154;48.810;9.012;2023-05-02T14:37:25;17.80;88.30
8226;DHT22;4154;48.810;9.012;2023-05-02T14:39:51;17.60;89.90
8226;DHT22;4154;48.810;9.012;2023-05-02T14:42:23;17.60;87.30
8226;DHT22;4154;48.810;9.012;2023-05-02T14:44:49;17.70;87.40
8226;DHT22;4154;48.810;9.012;2023-05-02T14:49:42;18.00;89.10
8226;DHT22;4154;48.810;9.012;2023-05-02T14:54:34;18.10;86.60
8226;DHT22;4154;48.810;9.012;2023-05-02T14:59:28;18.20;88.30
8226;DHT22;4154;48.810;9.012;2023-05-02T15:01:54;18.30;87.40
8226;DHT22;4154;48.810;9.012;2023-05-02T15:04:20;18.40;87.40
8226;DHT22;4154;48.810;9.012;2023-05-02T15:09:13;18.30;85.50
8226;DHT22;4154;48.810;9.012;2023-05-02T15:11:40;18.10;86.50
8226;DHT22;4154;48.810;9.012;2023-05-02T15:14:06;18.10;85.80
8226;DHT22;4154;48.810;9.012;2023-05-02T15:21:24;18.40;85.70
8226;DHT22;4154;48.810;9.012;2023-05-02T15:23:50;18.60;86.80
8226;DHT22;4154;48.810;9.012;2023-05-02T15:26:15;18.60;87.10
8226;DHT22;4154;48.810;9.012;2023-05-02T15:31:07;18.40;83.30
8226;DHT22;4154;48.810;9.012;2023-05-02T15:33:33;18.20;84.50
8226;DHT22;4154;48.810;9.012;2023-05-02T15:35:59;18.20;92.70
8226;DHT22;4154;48.810;9.012;2023-05-02T15:40:55;18.00;82.10
8226;DHT22;4154;48.810;9.012;2023-05-02T15:43:23;18.10;83.80
8226;DHT22;4154;48.810;9.012;2023-05-02T15:45:53;18.30;81.00
8226;DHT22;4154;48.810;9.012;2023-05-02T15:48:21;18.30;81.40
8226;DHT22;4154;48.810;9.012;2023-05-02T15:50:48;18.40;81.30
8226;DHT22;4154;48.810;9.012;2023-05-02T15:53:14;18.40;80.50
8226;DHT22;4154;48.810;9.012;2023-05-02T15:55:42;18.40;80.50
8226;DHT22;4154;48.810;9.012;2023-05-02T15:58:10;18.50;89.80
8226;DHT22;4154;48.810;9.012;2023-05-02T16:05:33;18.40;78.50
8226;DHT22;4154;48.810;9.012;2023-05-02T16:12:52;18.50;78.60
8226;DHT22;4154;48.810;9.012;2023-05-02T16:17:47;18.50;78.00
8226;DHT22;4154;48.810;9.012;2023-05-02T16:20:14;18.60;79.80
8226;DHT22;4154;48.810;9.012;2023-05-02T16:22:44;18.60;78.50
8226;DHT22;4154;48.810;9.012;2023-05-02T16:25:11;18.60;77.90
8226;DHT22;4154;48.810;9.012;2023-05-02T16:27:38;18.40;78.60
8226;DHT22;4154;48.810;9.012;2023-05-02T16:30:04;18.60;78.30
8226;DHT22;4154;48.810;9.012;2023-05-02T16:32:31;18.50;77.10
8226;DHT22;4154;48.810;9.012;2023-05-02T16:34:57;18.50;77.60
8226;DHT22;4154;48.810;9.012;2023-05-02T16:37:23;18.70;78.50
8226;DHT22;4154;48.810;9.012;2023-05-02T16:42:15;18.30;78.20
8226;DHT22;4154;48.810;9.012;2023-05-02T16:44:41;18.30;79.60
8226;DHT22;4154;48.810;9.012;2023-05-02T16:47:07;18.30;78.60
8226;DHT22;4154;48.810;9.012;2023-05-02T16:49:33;18.10;78.70
8226;DHT22;4154;48.810;9.012;2023-05-02T16:51:58;18.00;80.10
8226;DHT22;4154;48.810;9.012;2023-05-02T16:54:24;18.00;79.90
8226;DHT22;4154;48.810;9.012;2023-05-02T16:56:50;18.00;79.10
8226;DHT22;4154;48.810;9.012;2023-05-02T16:59:16;17.90;78.80
8226;DHT22;4154;48.810;9.012;2023-05-02T17:04:07;17.70;79.00
8226;DHT22;4154;48.810;9.012;2023-05-02T17:13:52;17.50;80.20
8226;DHT22;4154;48.810;9.012;2023-05-02T17:16:19;17.30;81.40
8226;DHT22;4154;48.810;9.012;2023-05-02T17:18:46;17.20;80.60
8226;DHT22;4154;48.810;9.012;2023-05-02T17:21:12;17.20;80.60
8226;DHT22;4154;48.810;9.012;2023-05-02T17:26:05;16.90;92.40
8226;DHT22;4154;48.810;9.012;2023-05-02T17:28:39;17.00;81.30
8226;DHT22;4154;48.810;9.012;2023-05-02T17:31:09;16.90;81.40
8226;DHT22;4154;48.810;9.012;2023-05-02T17:33:35;16.70;92.10
8226;DHT22;4154;48.810;9.012;2023-05-02T17:43:20;16.50;78.90
8226;DHT22;4154;48.810;9.012;2023-05-02T17:45:46;16.50;92.10
8226;DHT22;4154;48.810;9.012;2023-05-02T17:48:12;16.40;81.00
8226;DHT22;4154;48.810;9.012;2023-05-02T17:50:39;16.30;81.90
8226;DHT22;4154;48.810;9.012;2023-05-02T17:53:05;16.20;82.70
8226;DHT22;4154;48.810;9.012;2023-05-02T17:55:34;15.90;94.70
8226;DHT22;4154;48.810;9.012;2023-05-02T18:00:28;16.00;85.00
8226;DHT22;4154;48.810;9.012;2023-05-02T18:02:56;15.90;85.80
8226;DHT22;4154;48.810;9.012;2023-05-02T18:05:23;15.90;86.60
8226;DHT22;4154;48.810;9.012;2023-05-02T18:07:50;15.80;87.10
8226;DHT22;4154;48.810;9.012;2023-05-02T18:10:17;15.80;87.50
8226;DHT22;4154;48.810;9.012;2023-05-02T18:15:09;15.70;88.00
8226;DHT22;4154;48.810;9.012;2023-05-02T18:20:02;15.60;88.10
8226;DHT22;4154;48.810;9.012;2023-05-02T18:22:31;15.60;88.60
8226;DHT22;4154;48.810;9.012;2023-05-02T18:24:58;15.50;88.30
8226;DHT22;4154;48.810;9.012;2023-05-02T18:27:23;16.20;88.20
8226;DHT22;4154;48.810;9.012;2023-05-02T18:29:50;15.40;87.70
8226;DHT22;4154;48.810;9.012;2023-05-02T18:32:15;15.30;87.80
8226;DHT22;4154;48.810;9.012;2023-05-02T18:37:07;15.20;86.40
8226;DHT22;4154;48.810;9.012;2023-05-02T18:39:34;15.10;86.80
8226;DHT22;4154;48.810;9.012;2023-05-02T18:42:00;15.10;86.90
8226;DHT22;4154;48.810;9.012;2023-05-02T18:44:30;15.00;87.00
8226;DHT22;4154;48.810;9.012;2023-05-02T18:46:56;14.70;95.10
8226;DHT22;4154;48.810;9.012;2023-05-02T18:49:22;14.80;87.00
8226;DHT22;4154;48.810;9.012;2023-05-02T18:51:49;14.80;87.60
8226;DHT22;4154;48.810;9.012;2023-05-02T18:54:15;14.70;87.80
8226;DHT22;4154;48.810;9.012;2023-05-02T18:56:41;14.60;87.90
8226;DHT22;4154;48.810;9.012;2023-05-02T18:59:07;14.60;88.00
8226;DHT22;4154;48.810;9.012;2023-05-02T19:01:33;14.50;88.10
8226;DHT22;4154;48.810;9.012;2023-05-02T19:03:58;14.40;88.20
8226;DHT22;4154;48.810;9.012;2023-05-02T19:06:28;14.40;88.40
8226;DHT22;4154;48.810;9.012;2023-05-02T19:08:55;14.40;88.30
8226;DHT22;4154;48.810;9.012;2023-05-02T19:11:22;14.40;88.60
8226;DHT22;4154;48.810;9.012;2023-05-02T19:16:14;14.10;96.60
8226;DHT22;4154;48.810;9.012;2023-05-02T19:18:40;14.20;89.10
8226;DHT22;4154;48.810;9.012;2023-05-02T19:21:11;14.10;89.30
8226;DHT22;4154;48.810;9.012;2023-05-02T19:23:42;14.00;89.30
8226;DHT22;4154;48.810;9.012;2023-05-02T19:26:12;14.10;96.60
8226;DHT22;4154;48.810;9.012;2023-05-02T19:28:39;14.00;89.50
8226;DHT22;4154;48.810;9.012;2023-05-02T19:31:16;13.90;89.60
8226;DHT22;4154;48.810;9.012;2023-05-02T19:33:43;13.90;89.70
8226;DHT22;4154;48.810;9.012;2023-05-02T19:36:16;13.80;89.80
8226;DHT22;4154;48.810;9.012;2023-05-02T19:38:50;13.80;90.00
8226;DHT22;4154;48.810;9.012;2023-05-02T19:41:18;13.70;90.10
8226;DHT22;4154;48.810;9.012;2023-05-02T19:43:44;13.70;90.20
8226;DHT22;4154;48.810;9.012;2023-05-02T19:46:10;13.90;97.10